sensor_id;sensor_type;location;lat;lon;timestamp;P1;durP1;ratioP1;P2;durP2;ratioP2
24787;SDS011;12883;52.662;5.196;2023-05-31T00:01:43;4.43;;;4.43;;
24787;SDS011;12883;52.662;5.196;2023-05-31T00:04:08;4.43;;;4.43;;
24787;SDS011;12883;52.662;5.196;2023-05-31T00:06:34;4.07;;;4.07;;
24787;SDS011;12883;52.662;5.196;2023-05-31T00:09:00;4.53;;;4.53;;
24787;SDS011;12883;52.662;5.196;2023-05-31T00:11:26;4.50;;;4.50;;
24787;SDS011;12883;52.662;5.196;2023-05-31T00:13:51;4.20;;;4.20;;
24787;SDS011;12883;52.662;5.196;2023-05-31T00:16:17;4.53;;;4.53;;
24787;SDS011;12883;52.662;5.196;2023-05-31T00:18:42;4.63;;;4.63;;
24787;SDS011;12883;52.662;5.196;2023-05-31T00:21:07;4.77;;;4.77;;
24787;SDS011;12883;52.662;5.196;2023-05-31T00:23:33;4.00;;;4.00;;
24787;SDS011;12883;52.662;5.196;2023-05-31T00:25:58;4.57;;;4.57;;
24787;SDS011;12883;52.662;5.196;2023-05-31T00:28:23;4.97;;;4.97;;
24787;SDS011;12883;52.662;5.196;2023-05-31T00:30:49;4.50;;;4.50;;
24787;SDS011;12883;52.662;5.196;2023-05-31T00:33:14;4.47;;;4.47;;
24787;SDS011;12883;52.662;5.196;2023-05-31T00:35:39;4.43;;;4.43;;
24787;SDS011;12883;52.662;5.196;2023-05-31T00:38:05;4.90;;;4.90;;
24787;SDS011;12883;52.662;5.196;2023-05-31T00:40:31;4.73;;;4.73;;
24787;SDS011;12883;52.662;5.196;2023-05-31T00:42:57;4.43;;;4.43;;
24787;SDS011;12883;52.662;5.196;2023-05-31T00:45:22;4.43;;;4.43;;
24787;SDS011;12883;52.662;5.196;2023-05-31T00:47:48;4.40;;;4.40;;
24787;SDS011;12883;52.662;5.196;2023-05-31T00:50:14;4.37;;;4.37;;
24787;SDS011;12883;52.662;5.196;2023-05-31T00:52:40;4.23;;;4.23;;
24787;SDS011;12883;52.662;5.196;2023-05-31T00:55:09;4.77;;;4.77;;
24787;SDS011;12883;52.662;5.196;2023-05-31T00:57:35;3.73;;;3.73;;
24787;SDS011;12883;52.662;5.196;2023-05-31T01:00:01;3.93;;;3.93;;
24787;SDS011;12883;52.662;5.196;2023-05-31T01:02:29;5.43;;;5.43;;
24787;SDS011;12883;52.662;5.196;2023-05-31T01:04:57;4.80;;;4.80;;
24787;SDS011;12883;52.662;5.196;2023-05-31T01:07:23;4.73;;;4.73;;
24787;SDS011;12883;52.662;5.196;2023-05-31T01:09:49;4.87;;;4.87;;
24787;SDS011;12883;52.662;5.196;2023-05-31T01:17:30;4.93;;;4.93;;
24787;SDS011;12883;52.662;5.196;2023-05-31T01:20:04;5.37;;;5.37;;
24787;SDS011;12883;52.662;5.196;2023-05-31T01:28:25;5.00;;;5.00;;
24787;SDS011;12883;52.662;5.196;2023-05-31T01:30:52;4.73;;;4.73;;
24787;SDS011;12883;52.662;5.196;2023-05-31T01:33:18;4.67;;;4.67;;
24787;SDS011;12883;52.662;5.196;2023-05-31T01:35:44;4.93;;;4.93;;
24787;SDS011;12883;52.662;5.196;2023-05-31T01:38:09;5.10;;;5.10;;
24787;SDS011;12883;52.662;5.196;2023-05-31T01:40:35;4.33;;;4.33;;
24787;SDS011;12883;52.662;5.196;2023-05-31T01:43:03;5.07;;;5.07;;
24787;SDS011;12883;52.662;5.196;2023-05-31T01:45:30;5.07;;;5.07;;
24787;SDS011;12883;52.662;5.196;2023-05-31T01:48:06;5.50;;;5.50;;
24787;SDS011;12883;52.662;5.196;2023-05-31T01:50:34;5.47;;;5.47;;
24787;SDS011;12883;52.662;5.196;2023-05-31T01:53:00;5.57;;;5.57;;
24787;SDS011;12883;52.662;5.196;2023-05-31T01:55:26;5.30;;;5.30;;
24787;SDS011;12883;52.662;5.196;2023-05-31T01:57:52;5.73;;;5.73;;
24787;SDS011;12883;52.662;5.196;2023-05-31T02:00:21;5.53;;;5.53;;
24787;SDS011;12883;52.662;5.196;2023-05-31T02:02:47;5.50;;;5.50;;
24787;SDS011;12883;52.662;5.196;2023-05-31T02:05:15;5.70;;;5.70;;
24787;SDS011;12883;52.662;5.196;2023-05-31T02:07:41;5.47;;;5.47;;
24787;SDS011;12883;52.662;5.196;2023-05-31T02:10:08;4.90;;;4.90;;
24787;SDS011;12883;52.662;5.196;2023-05-31T02:12:34;5.33;;;5.33;;
24787;SDS011;12883;52.662;5.196;2023-05-31T02:15:00;4.83;;;4.83;;
24787;SDS011;12883;52.662;5.196;2023-05-31T02:17:25;4.80;;;4.80;;
24787;SDS011;12883;52.662;5.196;2023-05-31T02:19:52;4.97;;;4.97;;
24787;SDS011;12883;52.662;5.196;2023-05-31T02:22:18;5.20;;;5.20;;
24787;SDS011;12883;52.662;5.196;2023-05-31T02:24:47;5.07;;;5.07;;
24787;SDS011;12883;52.662;5.196;2023-05-31T02:27:13;5.77;;;5.77;;
24787;SDS011;12883;52.662;5.196;2023-05-31T02:29:39;5.20;;;5.20;;
24787;SDS011;12883;52.662;5.196;2023-05-31T02:32:05;5.73;;;5.73;;
24787;SDS011;12883;52.662;5.196;2023-05-31T02:34:30;5.70;;;5.70;;
24787;SDS011;12883;52.662;5.196;2023-05-31T02:36:56;5.13;;;5.13;;
24787;SDS011;12883;52.662;5.196;2023-05-31T02:39:22;5.37;;;5.37;;
24787;SDS011;12883;52.662;5.196;2023-05-31T02:41:47;5.70;;;5.70;;
24787;SDS011;12883;52.662;5.196;2023-05-31T02:44:14;5.90;;;5.90;;
24787;SDS011;12883;52.662;5.196;2023-05-31T02:46:39;5.67;;;5.67;;
24787;SDS011;12883;52.662;5.196;2023-05-31T02:49:05;5.93;;;5.93;;
24787;SDS011;12883;52.662;5.196;2023-05-31T02:51:31;6.30;;;6.30;;
24787;SDS011;12883;52.662;5.196;2023-05-31T02:53:57;5.47;;;5.47;;
24787;SDS011;12883;52.662;5.196;2023-05-31T02:56:22;5.23;;;5.23;;
24787;SDS011;12883;52.662;5.196;2023-05-31T02:58:48;5.97;;;5.97;;
24787;SDS011;12883;52.662;5.196;2023-05-31T03:01:13;6.20;;;6.20;;
24787;SDS011;12883;52.662;5.196;2023-05-31T03:03:39;5.50;;;5.50;;
24787;SDS011;12883;52.662;5.196;2023-05-31T03:06:05;5.83;;;5.83;;
24787;SDS011;12883;52.662;5.196;2023-05-31T03:08:31;5.33;;;5.33;;
24787;SDS011;12883;52.662;5.196;2023-05-31T03:10:56;5.03;;;5.03;;
24787;SDS011;12883;52.662;5.196;2023-05-31T03:13:21;6.23;;;6.23;;
24787;SDS011;12883;52.662;5.196;2023-05-31T03:15:47;6.00;;;6.00;;
24787;SDS011;12883;52.662;5.196;2023-05-31T03:18:12;5.97;;;5.97;;
24787;SDS011;12883;52.662;5.196;2023-05-31T03:20:38;6.50;;;6.50;;
24787;SDS011;12883;52.662;5.196;2023-05-31T03:23:03;5.60;;;5.60;;
24787;SDS011;12883;52.662;5.196;2023-05-31T03:25:29;6.40;;;6.40;;
24787;SDS011;12883;52.662;5.196;2023-05-31T03:27:54;6.93;;;6.93;;
24787;SDS011;12883;52.662;5.196;2023-05-31T03:30:22;5.87;;;5.87;;
24787;SDS011;12883;52.662;5.196;2023-05-31T03:32:47;6.07;;;6.07;;
24787;SDS011;12883;52.662;5.196;2023-05-31T03:35:13;6.80;;;6.80;;
24787;SDS011;12883;52.662;5.196;2023-05-31T03:37:38;6.17;;;6.17;;
24787;SDS011;12883;52.662;5.196;2023-05-31T03:40:03;5.80;;;5.80;;
24787;SDS011;12883;52.662;5.196;2023-05-31T03:42:29;6.40;;;6.40;;
24787;SDS011;12883;52.662;5.196;2023-05-31T03:44:56;6.40;;;6.40;;
24787;SDS011;12883;52.662;5.196;2023-05-31T03:47:22;6.30;;;6.30;;
24787;SDS011;12883;52.662;5.196;2023-05-31T03:49:47;6.93;;;6.93;;
24787;SDS011;12883;52.662;5.196;2023-05-31T03:52:13;6.70;;;6.70;;
24787;SDS011;12883;52.662;5.196;2023-05-31T03:54:38;7.13;;;7.13;;
24787;SDS011;12883;52.662;5.196;2023-05-31T03:57:05;6.40;;;6.40;;
24787;SDS011;12883;52.662;5.196;2023-05-31T03:59:30;6.80;;;6.80;;
24787;SDS011;12883;52.662;5.196;2023-05-31T04:01:56;6.93;;;6.93;;
24787;SDS011;12883;52.662;5.196;2023-05-31T04:04:21;7.10;;;7.10;;
24787;SDS011;12883;52.662;5.196;2023-05-31T04:06:46;6.57;;;6.57;;
24787;SDS011;12883;52.662;5.196;2023-05-31T04:09:12;6.10;;;6.10;;
24787;SDS011;12883;52.662;5.196;2023-05-31T04:11:37;7.60;;;7.60;;
24787;SDS011;12883;52.662;5.196;2023-05-31T04:14:03;6.63;;;6.63;;
24787;SDS011;12883;52.662;5.196;2023-05-31T04:16:28;6.30;;;6.30;;
24787;SDS011;12883;52.662;5.196;2023-05-31T04:18:53;7.40;;;7.40;;
24787;SDS011;12883;52.662;5.196;2023-05-31T04:21:19;7.30;;;7.30;;
24787;SDS011;12883;52.662;5.196;2023-05-31T04:23:45;6.93;;;6.93;;
24787;SDS011;12883;52.662;5.196;2023-05-31T04:26:10;7.33;;;7.33;;
24787;SDS011;12883;52.662;5.196;2023-05-31T04:28:41;8.00;;;8.00;;
24787;SDS011;12883;52.662;5.196;2023-05-31T04:31:07;7.03;;;7.03;;
24787;SDS011;12883;52.662;5.196;2023-05-31T04:33:32;7.63;;;7.63;;
24787;SDS011;12883;52.662;5.196;2023-05-31T04:35:58;7.30;;;7.30;;
24787;SDS011;12883;52.662;5.196;2023-05-31T04:38:24;7.50;;;7.50;;
24787;SDS011;12883;52.662;5.196;2023-05-31T04:40:52;8.10;;;8.10;;
24787;SDS011;12883;52.662;5.196;2023-05-31T04:43:19;9.37;;;9.37;;
24787;SDS011;12883;52.662;5.196;2023-05-31T04:45:44;9.30;;;9.30;;
24787;SDS011;12883;52.662;5.196;2023-05-31T04:48:10;8.07;;;8.07;;
24787;SDS011;12883;52.662;5.196;2023-05-31T04:50:36;8.53;;;8.53;;
24787;SDS011;12883;52.662;5.196;2023-05-31T04:53:02;9.13;;;9.13;;
24787;SDS011;12883;52.662;5.196;2023-05-31T04:55:28;9.20;;;9.20;;
24787;SDS011;12883;52.662;5.196;2023-05-31T04:57:53;8.57;;;8.57;;
24787;SDS011;12883;52.662;5.196;2023-05-31T05:00:19;9.30;;;9.30;;
24787;SDS011;12883;52.662;5.196;2023-05-31T05:02:44;9.37;;;9.37;;
24787;SDS011;12883;52.662;5.196;2023-05-31T05:05:10;9.23;;;9.23;;
24787;SDS011;12883;52.662;5.196;2023-05-31T05:07:36;8.97;;;8.97;;
24787;SDS011;12883;52.662;5.196;2023-05-31T05:10:02;9.50;;;9.50;;
24787;SDS011;12883;52.662;5.196;2023-05-31T05:12:29;9.43;;;9.43;;
24787;SDS011;12883;52.662;5.196;2023-05-31T05:14:54;9.50;;;9.50;;
24787;SDS011;12883;52.662;5.196;2023-05-31T05:17:19;9.00;;;9.00;;
24787;SDS011;12883;52.662;5.196;2023-05-31T05:19:45;9.13;;;9.13;;
24787;SDS011;12883;52.662;5.196;2023-05-31T05:22:11;8.30;;;8.30;;
24787;SDS011;12883;52.662;5.196;2023-05-31T05:24:36;8.97;;;8.97;;
24787;SDS011;12883;52.662;5.196;2023-05-31T05:27:01;9.40;;;9.40;;
24787;SDS011;12883;52.662;5.196;2023-05-31T05:29:27;9.77;;;9.77;;
24787;SDS011;12883;52.662;5.196;2023-05-31T05:31:52;10.03;;;10.03;;
24787;SDS011;12883;52.662;5.196;2023-05-31T05:34:18;9.40;;;9.40;;
24787;SDS011;12883;52.662;5.196;2023-05-31T05:36:45;9.03;;;9.03;;
24787;SDS011;12883;52.662;5.196;2023-05-31T05:39:11;9.10;;;9.10;;
24787;SDS011;12883;52.662;5.196;2023-05-31T05:41:36;9.93;;;9.93;;
24787;SDS011;12883;52.662;5.196;2023-05-31T05:44:01;8.47;;;8.47;;
24787;SDS011;12883;52.662;5.196;2023-05-31T05:46:27;8.87;;;8.87;;
24787;SDS011;12883;52.662;5.196;2023-05-31T05:48:53;9.67;;;9.67;;
24787;SDS011;12883;52.662;5.196;2023-05-31T05:51:19;9.57;;;9.57;;
24787;SDS011;12883;52.662;5.196;2023-05-31T05:53:44;8.43;;;8.43;;
24787;SDS011;12883;52.662;5.196;2023-05-31T05:56:10;9.30;;;9.30;;
24787;SDS011;12883;52.662;5.196;2023-05-31T05:58:43;9.70;;;9.70;;
24787;SDS011;12883;52.662;5.196;2023-05-31T06:01:08;8.90;;;8.90;;
24787;SDS011;12883;52.662;5.196;2023-05-31T06:03:34;9.13;;;9.13;;
24787;SDS011;12883;52.662;5.196;2023-05-31T06:05:59;8.43;;;8.43;;
24787;SDS011;12883;52.662;5.196;2023-05-31T06:08:24;8.80;;;8.80;;
24787;SDS011;12883;52.662;5.196;2023-05-31T06:10:50;8.85;;;8.85;;
24787;SDS011;12883;52.662;5.196;2023-05-31T06:13:15;8.98;;;8.98;;
24787;SDS011;12883;52.662;5.196;2023-05-31T06:15:41;9.02;;;9.02;;
24787;SDS011;12883;52.662;5.196;2023-05-31T06:18:06;8.88;;;8.88;;
24787;SDS011;12883;52.662;5.196;2023-05-31T06:20:33;7.75;;;7.75;;
24787;SDS011;12883;52.662;5.196;2023-05-31T06:22:58;7.68;;;7.68;;
24787;SDS011;12883;52.662;5.196;2023-05-31T06:25:24;9.10;;;9.10;;
24787;SDS011;12883;52.662;5.196;2023-05-31T06:27:49;8.30;;;8.30;;
24787;SDS011;12883;52.662;5.196;2023-05-31T06:30:15;8.05;;;8.05;;
24787;SDS011;12883;52.662;5.196;2023-05-31T06:32:41;8.23;;;8.23;;
24787;SDS011;12883;52.662;5.196;2023-05-31T06:35:06;8.20;;;8.20;;
24787;SDS011;12883;52.662;5.196;2023-05-31T06:37:32;8.65;;;8.65;;
24787;SDS011;12883;52.662;5.196;2023-05-31T06:39:58;8.32;;;8.32;;
24787;SDS011;12883;52.662;5.196;2023-05-31T06:42:23;8.35;;;8.35;;
24787;SDS011;12883;52.662;5.196;2023-05-31T06:44:49;8.82;;;8.82;;
24787;SDS011;12883;52.662;5.196;2023-05-31T06:47:15;8.43;;;8.43;;
24787;SDS011;12883;52.662;5.196;2023-05-31T06:49:41;9.18;;;9.10;;
24787;SDS011;12883;52.662;5.196;2023-05-31T06:52:06;8.88;;;8.88;;
24787;SDS011;12883;52.662;5.196;2023-05-31T06:54:35;8.60;;;8.60;;
24787;SDS011;12883;52.662;5.196;2023-05-31T06:57:04;8.88;;;8.80;;
24787;SDS011;12883;52.662;5.196;2023-05-31T06:59:30;9.23;;;9.23;;
24787;SDS011;12883;52.662;5.196;2023-05-31T07:01:56;7.97;;;7.97;;
24787;SDS011;12883;52.662;5.196;2023-05-31T07:04:21;8.40;;;8.40;;
24787;SDS011;12883;52.662;5.196;2023-05-31T07:06:47;8.15;;;8.15;;
24787;SDS011;12883;52.662;5.196;2023-05-31T07:09:12;7.85;;;7.85;;
24787;SDS011;12883;52.662;5.196;2023-05-31T07:11:41;8.88;;;8.88;;
24787;SDS011;12883;52.662;5.196;2023-05-31T07:14:07;7.75;;;7.75;;
24787;SDS011;12883;52.662;5.196;2023-05-31T07:16:33;8.13;;;8.13;;
24787;SDS011;12883;52.662;5.196;2023-05-31T07:18:58;7.95;;;7.95;;
24787;SDS011;12883;52.662;5.196;2023-05-31T07:21:24;8.10;;;8.10;;
24787;SDS011;12883;52.662;5.196;2023-05-31T07:23:49;8.68;;;8.68;;
24787;SDS011;12883;52.662;5.196;2023-05-31T07:26:15;8.30;;;8.30;;
24787;SDS011;12883;52.662;5.196;2023-05-31T07:28:42;7.93;;;7.93;;
24787;SDS011;12883;52.662;5.196;2023-05-31T07:31:11;8.15;;;8.15;;
24787;SDS011;12883;52.662;5.196;2023-05-31T07:33:38;8.20;;;8.20;;
24787;SDS011;12883;52.662;5.196;2023-05-31T07:36:03;9.00;;;9.00;;
24787;SDS011;12883;52.662;5.196;2023-05-31T07:38:29;8.00;;;8.00;;
24787;SDS011;12883;52.662;5.196;2023-05-31T07:40:55;8.18;;;8.18;;
24787;SDS011;12883;52.662;5.196;2023-05-31T07:43:21;9.20;;;9.20;;
24787;SDS011;12883;52.662;5.196;2023-05-31T07:45:48;8.35;;;8.35;;
24787;SDS011;12883;52.662;5.196;2023-05-31T07:48:14;8.68;;;8.68;;
24787;SDS011;12883;52.662;5.196;2023-05-31T07:50:39;8.18;;;8.18;;
24787;SDS011;12883;52.662;5.196;2023-05-31T07:53:05;8.10;;;8.10;;
24787;SDS011;12883;52.662;5.196;2023-05-31T07:55:30;7.50;;;7.50;;
24787;SDS011;12883;52.662;5.196;2023-05-31T07:57:56;7.97;;;7.97;;
24787;SDS011;12883;52.662;5.196;2023-05-31T08:00:22;8.40;;;8.40;;
24787;SDS011;12883;52.662;5.196;2023-05-31T08:02:48;8.02;;;8.02;;
24787;SDS011;12883;52.662;5.196;2023-05-31T08:05:14;7.85;;;7.85;;
24787;SDS011;12883;52.662;5.196;2023-05-31T08:07:39;8.38;;;8.38;;
24787;SDS011;12883;52.662;5.196;2023-05-31T08:10:04;7.93;;;7.93;;
24787;SDS011;12883;52.662;5.196;2023-05-31T08:12:30;8.50;;;8.50;;
24787;SDS011;12883;52.662;5.196;2023-05-31T08:14:56;8.45;;;8.45;;
24787;SDS011;12883;52.662;5.196;2023-05-31T08:17:21;7.63;;;7.63;;
24787;SDS011;12883;52.662;5.196;2023-05-31T08:19:47;8.93;;;8.93;;
24787;SDS011;12883;52.662;5.196;2023-05-31T08:22:12;8.75;;;8.75;;
24787;SDS011;12883;52.662;5.196;2023-05-31T08:24:37;9.30;;;9.30;;
24787;SDS011;12883;52.662;5.196;2023-05-31T08:27:03;9.15;;;9.15;;
24787;SDS011;12883;52.662;5.196;2023-05-31T08:29:28;8.13;;;8.13;;
24787;SDS011;12883;52.662;5.196;2023-05-31T08:31:54;9.40;;;9.40;;
24787;SDS011;12883;52.662;5.196;2023-05-31T08:34:20;9.15;;;9.15;;
24787;SDS011;12883;52.662;5.196;2023-05-31T08:36:45;9.68;;;9.68;;
24787;SDS011;12883;52.662;5.196;2023-05-31T08:39:12;8.77;;;8.77;;
24787;SDS011;12883;52.662;5.196;2023-05-31T08:44:31;9.48;;;9.48;;
24787;SDS011;12883;52.662;5.196;2023-05-31T08:47:07;10.25;;;10.25;;
24787;SDS011;12883;52.662;5.196;2023-05-31T08:49:42;9.65;;;9.65;;
24787;SDS011;12883;52.662;5.196;2023-05-31T08:52:10;10.30;;;10.30;;
24787;SDS011;12883;52.662;5.196;2023-05-31T08:54:36;10.80;;;10.80;;
24787;SDS011;12883;52.662;5.196;2023-05-31T08:57:02;9.68;;;9.68;;
24787;SDS011;12883;52.662;5.196;2023-05-31T08:59:28;10.55;;;10.55;;
24787;SDS011;12883;52.662;5.196;2023-05-31T09:01:55;10.43;;;10.43;;
24787;SDS011;12883;52.662;5.196;2023-05-31T09:04:22;10.52;;;10.52;;
24787;SDS011;12883;52.662;5.196;2023-05-31T09:06:47;9.38;;;9.38;;
24787;SDS011;12883;52.662;5.196;2023-05-31T09:09:12;9.23;;;9.23;;
24787;SDS011;12883;52.662;5.196;2023-05-31T09:11:38;9.80;;;9.80;;
24787;SDS011;12883;52.662;5.196;2023-05-31T09:14:05;10.13;;;10.13;;
24787;SDS011;12883;52.662;5.196;2023-05-31T09:16:32;9.43;;;9.43;;
24787;SDS011;12883;52.662;5.196;2023-05-31T09:19:01;8.55;;;8.55;;
24787;SDS011;12883;52.662;5.196;2023-05-31T09:21:37;9.25;;;9.25;;
24787;SDS011;12883;52.662;5.196;2023-05-31T09:24:06;8.90;;;8.90;;
24787;SDS011;12883;52.662;5.196;2023-05-31T09:26:32;10.13;;;10.13;;
24787;SDS011;12883;52.662;5.196;2023-05-31T09:28:58;9.02;;;9.02;;
24787;SDS011;12883;52.662;5.196;2023-05-31T09:31:24;9.32;;;9.32;;
24787;SDS011;12883;52.662;5.196;2023-05-31T09:33:50;9.13;;;9.13;;
24787;SDS011;12883;52.662;5.196;2023-05-31T09:36:27;10.05;;;10.05;;
24787;SDS011;12883;52.662;5.196;2023-05-31T09:39:03;8.55;;;8.55;;
24787;SDS011;12883;52.662;5.196;2023-05-31T09:41:30;9.52;;;9.52;;
24787;SDS011;12883;52.662;5.196;2023-05-31T09:43:56;8.82;;;8.82;;
24787;SDS011;12883;52.662;5.196;2023-05-31T09:46:22;9.98;;;9.98;;
24787;SDS011;12883;52.662;5.196;2023-05-31T09:49:01;10.05;;;10.05;;
24787;SDS011;12883;52.662;5.196;2023-05-31T09:51:29;9.40;;;9.40;;
24787;SDS011;12883;52.662;5.196;2023-05-31T09:54:01;9.32;;;9.32;;
24787;SDS011;12883;52.662;5.196;2023-05-31T09:56:35;9.52;;;9.52;;
24787;SDS011;12883;52.662;5.196;2023-05-31T09:59:02;9.18;;;9.18;;
24787;SDS011;12883;52.662;5.196;2023-05-31T10:01:29;9.25;;;9.25;;
24787;SDS011;12883;52.662;5.196;2023-05-31T10:03:56;10.13;;;10.13;;
24787;SDS011;12883;52.662;5.196;2023-05-31T10:06:24;8.90;;;8.90;;
24787;SDS011;12883;52.662;5.196;2023-05-31T10:08:49;8.98;;;8.98;;
24787;SDS011;12883;52.662;5.196;2023-05-31T10:11:17;8.98;;;8.98;;
24787;SDS011;12883;52.662;5.196;2023-05-31T10:13:52;9.77;;;9.77;;
24787;SDS011;12883;52.662;5.196;2023-05-31T10:16:21;9.27;;;9.27;;
24787;SDS011;12883;52.662;5.196;2023-05-31T10:18:50;8.02;;;8.02;;
24787;SDS011;12883;52.662;5.196;2023-05-31T10:21:22;9.05;;;9.05;;
24787;SDS011;12883;52.662;5.196;2023-05-31T10:23:57;7.70;;;7.70;;
24787;SDS011;12883;52.662;5.196;2023-05-31T10:26:31;8.02;;;8.02;;
24787;SDS011;12883;52.662;5.196;2023-05-31T10:31:50;7.63;;;7.63;;
24787;SDS011;12883;52.662;5.196;2023-05-31T10:34:24;7.97;;;7.97;;
24787;SDS011;12883;52.662;5.196;2023-05-31T10:36:51;7.70;;;7.70;;
24787;SDS011;12883;52.662;5.196;2023-05-31T10:41:57;6.78;;;6.78;;
24787;SDS011;12883;52.662;5.196;2023-05-31T10:44:36;7.57;;;7.57;;
24787;SDS011;12883;52.662;5.196;2023-05-31T10:47:19;6.97;;;6.97;;
24787;SDS011;12883;52.662;5.196;2023-05-31T10:49:50;7.03;;;7.03;;
24787;SDS011;12883;52.662;5.196;2023-05-31T10:52:19;6.90;;;6.90;;
24787;SDS011;12883;52.662;5.196;2023-05-31T10:54:44;6.45;;;6.45;;
24787;SDS011;12883;52.662;5.196;2023-05-31T10:57:12;5.90;;;5.90;;
24787;SDS011;12883;52.662;5.196;2023-05-31T10:59:44;5.60;;;5.60;;
24787;SDS011;12883;52.662;5.196;2023-05-31T11:02:10;5.47;;;5.47;;
24787;SDS011;12883;52.662;5.196;2023-05-31T11:04:36;6.65;;;6.65;;
24787;SDS011;12883;52.662;5.196;2023-05-31T11:07:36;6.50;;;6.50;;
24787;SDS011;12883;52.662;5.196;2023-05-31T11:09:56;6.35;;;6.35;;
24787;SDS011;12883;52.662;5.196;2023-05-31T11:12:33;6.53;;;6.53;;
24787;SDS011;12883;52.662;5.196;2023-05-31T11:15:03;6.20;;;6.20;;
24787;SDS011;12883;52.662;5.196;2023-05-31T11:17:29;6.47;;;6.47;;
24787;SDS011;12883;52.662;5.196;2023-05-31T11:20:04;6.35;;;6.35;;
24787;SDS011;12883;52.662;5.196;2023-05-31T11:22:30;6.75;;;6.75;;
24787;SDS011;12883;52.662;5.196;2023-05-31T11:24:56;6.00;;;6.00;;
24787;SDS011;12883;52.662;5.196;2023-05-31T11:27:34;5.93;;;5.93;;
24787;SDS011;12883;52.662;5.196;2023-05-31T11:30:01;6.85;;;6.85;;
24787;SDS011;12883;52.662;5.196;2023-05-31T11:35:06;6.97;;;6.88;;
24787;SDS011;12883;52.662;5.196;2023-05-31T11:37:37;7.43;;;7.32;;
24787;SDS011;12883;52.662;5.196;2023-05-31T11:40:03;6.22;;;6.22;;
24787;SDS011;12883;52.662;5.196;2023-05-31T11:42:31;5.47;;;5.47;;
24787;SDS011;12883;52.662;5.196;2023-05-31T11:45:17;6.28;;;6.18;;
24787;SDS011;12883;52.662;5.196;2023-05-31T11:50:49;5.80;;;5.80;;
24787;SDS011;12883;52.662;5.196;2023-05-31T11:53:15;6.18;;;6.18;;
24787;SDS011;12883;52.662;5.196;2023-05-31T11:55:44;5.70;;;5.70;;
24787;SDS011;12883;52.662;5.196;2023-05-31T11:58:12;5.68;;;5.68;;
24787;SDS011;12883;52.662;5.196;2023-05-31T12:00:42;6.07;;;6.07;;
24787;SDS011;12883;52.662;5.196;2023-05-31T12:03:13;6.25;;;6.25;;
24787;SDS011;12883;52.662;5.196;2023-05-31T12:05:41;6.47;;;6.47;;
24787;SDS011;12883;52.662;5.196;2023-05-31T12:08:07;5.78;;;5.78;;
24787;SDS011;12883;52.662;5.196;2023-05-31T12:10:37;5.93;;;5.93;;
24787;SDS011;12883;52.662;5.196;2023-05-31T12:13:04;5.43;;;5.43;;
24787;SDS011;12883;52.662;5.196;2023-05-31T12:15:29;5.70;;;5.60;;
24787;SDS011;12883;52.662;5.196;2023-05-31T12:17:57;6.07;;;6.07;;
24787;SDS011;12883;52.662;5.196;2023-05-31T12:20:26;5.50;;;5.50;;
24787;SDS011;12883;52.662;5.196;2023-05-31T12:22:52;5.68;;;5.68;;
24787;SDS011;12883;52.662;5.196;2023-05-31T12:25:17;5.82;;;5.82;;
24787;SDS011;12883;52.662;5.196;2023-05-31T12:27:43;6.07;;;6.03;;
24787;SDS011;12883;52.662;5.196;2023-05-31T12:30:08;5.93;;;5.93;;
24787;SDS011;12883;52.662;5.196;2023-05-31T12:32:46;6.28;;;6.28;;
24787;SDS011;12883;52.662;5.196;2023-05-31T12:35:11;5.60;;;5.60;;
24787;SDS011;12883;52.662;5.196;2023-05-31T12:37:37;5.53;;;5.53;;
24787;SDS011;12883;52.662;5.196;2023-05-31T12:40:22;5.25;;;5.25;;
24787;SDS011;12883;52.662;5.196;2023-05-31T12:42:48;6.35;;;6.25;;
24787;SDS011;12883;52.662;5.196;2023-05-31T12:45:16;6.88;;;6.78;;
24787;SDS011;12883;52.662;5.196;2023-05-31T12:47:43;6.55;;;6.45;;
24787;SDS011;12883;52.662;5.196;2023-05-31T12:50:09;5.55;;;5.55;;
24787;SDS011;12883;52.662;5.196;2023-05-31T12:52:35;4.95;;;4.95;;
24787;SDS011;12883;52.662;5.196;2023-05-31T12:55:04;5.45;;;5.45;;
24787;SDS011;12883;52.662;5.196;2023-05-31T12:57:30;5.30;;;5.30;;
24787;SDS011;12883;52.662;5.196;2023-05-31T13:00:05;5.82;;;5.82;;
24787;SDS011;12883;52.662;5.196;2023-05-31T13:02:36;5.10;;;5.10;;
24787;SDS011;12883;52.662;5.196;2023-05-31T13:05:05;5.18;;;5.18;;
24787;SDS011;12883;52.662;5.196;2023-05-31T13:07:32;5.55;;;5.55;;
24787;SDS011;12883;52.662;5.196;2023-05-31T13:09:58;5.28;;;5.28;;
24787;SDS011;12883;52.662;5.196;2023-05-31T13:12:23;6.35;;;6.35;;
24787;SDS011;12883;52.662;5.196;2023-05-31T13:14:48;4.75;;;4.75;;
24787;SDS011;12883;52.662;5.196;2023-05-31T13:17:17;4.75;;;4.75;;
24787;SDS011;12883;52.662;5.196;2023-05-31T13:19:42;5.35;;;5.35;;
24787;SDS011;12883;52.662;5.196;2023-05-31T13:22:08;5.80;;;5.80;;
24787;SDS011;12883;52.662;5.196;2023-05-31T13:24:33;6.07;;;6.07;;
24787;SDS011;12883;52.662;5.196;2023-05-31T13:26:59;5.57;;;5.57;;
24787;SDS011;12883;52.662;5.196;2023-05-31T13:29:25;5.20;;;5.20;;
24787;SDS011;12883;52.662;5.196;2023-05-31T13:31:51;5.47;;;5.47;;
24787;SDS011;12883;52.662;5.196;2023-05-31T13:34:17;5.78;;;5.78;;
24787;SDS011;12883;52.662;5.196;2023-05-31T13:36:43;5.63;;;5.63;;
24787;SDS011;12883;52.662;5.196;2023-05-31T13:39:08;6.57;;;6.57;;
24787;SDS011;12883;52.662;5.196;2023-05-31T13:41:39;6.50;;;6.50;;
24787;SDS011;12883;52.662;5.196;2023-05-31T13:44:06;6.65;;;6.65;;
24787;SDS011;12883;52.662;5.196;2023-05-31T13:46:32;6.85;;;6.85;;
24787;SDS011;12883;52.662;5.196;2023-05-31T13:48:57;7.07;;;7.07;;
24787;SDS011;12883;52.662;5.196;2023-05-31T13:51:22;7.70;;;7.70;;
24787;SDS011;12883;52.662;5.196;2023-05-31T13:53:48;6.47;;;6.47;;
24787;SDS011;12883;52.662;5.196;2023-05-31T13:56:13;7.60;;;7.60;;
24787;SDS011;12883;52.662;5.196;2023-05-31T13:58:38;6.65;;;6.65;;
24787;SDS011;12883;52.662;5.196;2023-05-31T14:01:04;6.57;;;6.57;;
24787;SDS011;12883;52.662;5.196;2023-05-31T14:03:32;6.25;;;6.25;;
24787;SDS011;12883;52.662;5.196;2023-05-31T14:05:57;6.35;;;6.35;;
24787;SDS011;12883;52.662;5.196;2023-05-31T14:08:22;7.07;;;7.07;;
24787;SDS011;12883;52.662;5.196;2023-05-31T14:10:48;6.90;;;6.90;;
24787;SDS011;12883;52.662;5.196;2023-05-31T14:13:13;6.38;;;6.38;;
24787;SDS011;12883;52.662;5.196;2023-05-31T14:15:39;6.75;;;6.75;;
24787;SDS011;12883;52.662;5.196;2023-05-31T14:18:05;6.93;;;6.93;;
24787;SDS011;12883;52.662;5.196;2023-05-31T14:20:31;7.18;;;7.18;;
24787;SDS011;12883;52.662;5.196;2023-05-31T14:22:57;6.93;;;6.93;;
24787;SDS011;12883;52.662;5.196;2023-05-31T14:25:22;6.90;;;6.90;;
24787;SDS011;12883;52.662;5.196;2023-05-31T14:27:47;5.80;;;5.80;;
24787;SDS011;12883;52.662;5.196;2023-05-31T14:30:13;5.53;;;5.53;;
24787;SDS011;12883;52.662;5.196;2023-05-31T14:32:38;5.90;;;5.90;;
24787;SDS011;12883;52.662;5.196;2023-05-31T14:35:04;6.40;;;6.40;;
24787;SDS011;12883;52.662;5.196;2023-05-31T14:37:31;5.97;;;5.97;;
24787;SDS011;12883;52.662;5.196;2023-05-31T14:39:57;6.07;;;6.07;;
24787;SDS011;12883;52.662;5.196;2023-05-31T14:42:22;5.95;;;5.95;;
24787;SDS011;12883;52.662;5.196;2023-05-31T14:44:47;6.05;;;6.05;;
24787;SDS011;12883;52.662;5.196;2023-05-31T14:47:13;7.70;;;7.70;;
24787;SDS011;12883;52.662;5.196;2023-05-31T14:49:38;7.43;;;7.43;;
24787;SDS011;12883;52.662;5.196;2023-05-31T14:52:04;7.90;;;7.90;;
24787;SDS011;12883;52.662;5.196;2023-05-31T14:54:32;7.72;;;7.72;;
24787;SDS011;12883;52.662;5.196;2023-05-31T14:56:58;8.13;;;8.13;;
24787;SDS011;12883;52.662;5.196;2023-05-31T14:59:23;6.80;;;6.80;;
24787;SDS011;12883;52.662;5.196;2023-05-31T15:01:53;7.03;;;7.03;;
24787;SDS011;12883;52.662;5.196;2023-05-31T15:04:18;6.13;;;6.13;;
24787;SDS011;12883;52.662;5.196;2023-05-31T15:06:44;6.00;;;6.00;;
24787;SDS011;12883;52.662;5.196;2023-05-31T15:09:09;6.25;;;6.25;;
24787;SDS011;12883;52.662;5.196;2023-05-31T15:11:38;5.55;;;5.55;;